createdAt,value
2019-05-01T00:01:22.901Z,10.17
2019-05-01T00:04:05.779Z,10.27
2019-05-01T00:06:36.576Z,10.18
2019-05-01T00:09:08.180Z,10.29
2019-05-01T00:11:37.341Z,10.35
2019-05-01T00:14:08.100Z,10.41
2019-05-01T00:16:37.460Z,10.39
2019-05-01T00:19:06.540Z,10.32
2019-05-01T00:21:35.660Z,10.25
2019-05-01T00:24:04.699Z,10.24
2019-05-01T00:26:33.740Z,10.22
2019-05-01T00:29:03.060Z,10.28
2019-05-01T00:31:31.940Z,10.32
2019-05-01T00:34:01.341Z,10.34
2019-05-01T00:36:30.461Z,10.35
2019-05-01T00:38:59.741Z,10.29
2019-05-01T00:41:28.709Z,10.40
2019-05-01T00:43:57.830Z,10.45
2019-05-01T00:46:26.820Z,10.40
2019-05-01T00:48:55.861Z,10.25
2019-05-01T00:51:24.980Z,10.13
2019-05-01T00:53:53.981Z,10.09
2019-05-01T00:56:24.540Z,10.04
2019-05-01T00:59:01.380Z,10.18
2019-05-01T01:01:41.179Z,10.22
2019-05-01T01:04:11.900Z,10.18
2019-05-01T01:06:41.142Z,10.03
2019-05-01T01:09:10.660Z,10.04
2019-05-01T01:11:39.620Z,10.07
2019-05-01T01:14:08.702Z,10.12
2019-05-01T01:16:37.780Z,9.90
2019-05-01T01:19:06.981Z,10.01
2019-05-01T01:21:36.140Z,9.83
2019-05-01T01:24:05.621Z,9.87
2019-05-01T01:26:34.820Z,9.91
2019-05-01T01:29:04.100Z,9.89
2019-05-01T01:31:33.262Z,9.59
2019-05-01T01:34:02.460Z,9.32
2019-05-01T01:36:32.660Z,9.41
2019-05-01T01:39:01.861Z,9.52
2019-05-01T01:41:31.142Z,9.42
2019-05-01T01:44:01.862Z,9.44
2019-05-01T01:46:35.220Z,9.32
2019-05-01T01:49:04.580Z,9.31
2019-05-01T01:51:34.664Z,9.26
2019-05-01T01:54:03.981Z,9.18
2019-05-01T01:56:33.026Z,9.16
2019-05-01T01:59:02.194Z,9.05
2019-05-01T02:01:32.836Z,9.01
2019-05-01T02:04:12.395Z,9.06
2019-05-01T02:06:41.407Z,8.85
2019-05-01T02:09:10.857Z,8.67
2019-05-01T02:11:39.800Z,8.64
2019-05-01T02:14:08.731Z,8.68
2019-05-01T02:16:37.680Z,8.45
2019-05-01T02:19:06.643Z,8.41
2019-05-01T02:21:35.534Z,8.50
2019-05-01T02:24:04.579Z,8.37
2019-05-01T02:26:38.187Z,8.29
2019-05-01T02:29:18.055Z,8.29
2019-05-01T02:31:51.019Z,8.12
2019-05-01T02:34:21.843Z,7.94
2019-05-01T02:36:53.768Z,7.98
2019-05-01T02:39:23.817Z,7.87
2019-05-01T02:41:55.120Z,8.04
2019-05-01T02:44:42.312Z,8.08
2019-05-01T02:47:13.865Z,7.87
2019-05-01T02:49:54.635Z,7.91
2019-05-01T02:52:26.525Z,7.85
2019-05-01T02:54:58.540Z,7.66
2019-05-01T02:57:28.801Z,7.63
2019-05-01T02:59:58.734Z,7.58
2019-05-01T03:02:29.042Z,7.58
2019-05-01T03:04:58.709Z,7.32
2019-05-01T03:07:30.581Z,7.42
2019-05-01T03:09:59.963Z,7.46
2019-05-01T03:12:31.224Z,7.37
2019-05-01T03:15:03.093Z,7.40
2019-05-01T03:17:37.456Z,7.20
2019-05-01T03:20:09.071Z,6.99
2019-05-01T03:22:51.703Z,6.95
2019-05-01T03:25:20.923Z,6.89
2019-05-01T03:27:49.882Z,6.79
2019-05-01T03:30:18.940Z,6.77
2019-05-01T03:32:48.075Z,6.80
2019-05-01T03:35:17.082Z,6.81
2019-05-01T03:37:46.228Z,6.78
2019-05-01T03:40:15.256Z,6.91
2019-05-01T03:42:44.136Z,6.99
2019-05-01T03:45:13.374Z,7.04
2019-05-01T03:47:42.497Z,7.12
2019-05-01T03:50:11.656Z,7.13
2019-05-01T03:52:40.893Z,7.20
2019-05-01T03:55:09.849Z,7.30
2019-05-01T03:57:38.897Z,7.30
2019-05-01T04:00:09.922Z,7.45
2019-05-01T04:02:41.142Z,7.45
2019-05-01T04:05:11.561Z,7.42
2019-05-01T04:07:40.733Z,7.39
2019-05-01T04:10:09.954Z,7.25
2019-05-01T04:12:39.013Z,7.45
2019-05-01T04:15:08.156Z,7.34
2019-05-01T04:17:39.090Z,7.40
2019-05-01T04:20:08.399Z,7.27
2019-05-01T04:22:37.342Z,7.49
2019-05-01T04:25:08.443Z,7.56
2019-05-01T04:27:39.063Z,7.70
2019-05-01T04:30:09.603Z,7.73
2019-05-01T04:32:52.026Z,7.78
2019-05-01T04:35:17.884Z,7.79
2019-05-01T04:37:47.493Z,7.72
2019-05-01T04:40:19.025Z,7.74
2019-05-01T04:42:47.626Z,7.79
2019-05-01T04:45:17.091Z,7.83
2019-05-01T04:47:46.238Z,7.89
2019-05-01T04:50:15.788Z,7.93
2019-05-01T04:52:44.996Z,7.97
2019-05-01T04:55:14.368Z,7.88
2019-05-01T04:57:43.299Z,8.03
2019-05-01T05:00:12.812Z,8.09
2019-05-01T05:02:46.338Z,8.11
2019-05-01T05:05:15.677Z,8.20
2019-05-01T05:07:44.728Z,8.30
2019-05-01T05:10:13.666Z,8.37
2019-05-01T05:12:44.593Z,8.42
2019-05-01T05:15:21.192Z,8.45
2019-05-01T05:17:50.554Z,8.55
2019-05-01T05:20:19.907Z,8.65
2019-05-01T05:22:49.341Z,8.63
2019-05-01T05:25:18.387Z,8.76
2019-05-01T05:27:49.222Z,8.81
2019-05-01T05:30:18.250Z,8.87
2019-05-01T05:32:49.844Z,8.92
2019-05-01T05:35:21.922Z,9.02
2019-05-01T05:37:57.133Z,9.07
2019-05-01T05:40:33.271Z,9.18
2019-05-01T05:43:03.063Z,9.17
2019-05-01T05:45:31.899Z,9.23
2019-05-01T05:48:00.860Z,9.33
2019-05-01T05:50:39.187Z,9.45
2019-05-01T05:53:13.961Z,9.52
2019-05-01T05:55:47.625Z,9.60
2019-05-01T05:58:20.549Z,9.62
2019-05-01T06:00:58.292Z,9.67
2019-05-01T06:03:46.678Z,9.82
2019-05-01T06:06:36.252Z,9.88
2019-05-01T06:09:09.114Z,9.85
2019-05-01T06:11:50.644Z,9.80
2019-05-01T06:14:26.987Z,9.91
2019-05-01T06:16:57.785Z,9.90
2019-05-01T06:19:28.810Z,9.99
2019-05-01T06:22:10.132Z,10.06
2019-05-01T06:24:44.100Z,10.21
2019-05-01T06:27:13.915Z,10.32
2019-05-01T06:29:44.567Z,10.41
2019-05-01T06:32:13.521Z,10.63
2019-05-01T06:34:42.461Z,10.72
2019-05-01T06:37:11.497Z,10.87
2019-05-01T06:39:42.944Z,11.00
2019-05-01T06:42:14.978Z,11.12
2019-05-01T06:44:55.060Z,11.15
2019-05-01T06:47:28.656Z,11.12
2019-05-01T06:50:05.771Z,11.13
2019-05-01T06:52:33.337Z,11.16
2019-05-01T06:55:02.309Z,11.20
2019-05-01T06:57:32.466Z,11.37
2019-05-01T07:00:03.405Z,11.32
2019-05-01T07:02:35.064Z,11.51
2019-05-01T07:05:04.176Z,11.62
2019-05-01T07:07:34.117Z,11.72
2019-05-01T07:10:04.582Z,11.91
2019-05-01T07:12:34.432Z,11.95
2019-05-01T07:15:04.874Z,11.87
2019-05-01T07:17:34.113Z,11.89
2019-05-01T07:20:06.047Z,11.90
2019-05-01T07:22:37.145Z,11.96
2019-05-01T07:25:08.550Z,12.10
2019-05-01T07:27:37.707Z,12.09
2019-05-01T07:30:10.525Z,12.03
2019-05-01T07:32:41.097Z,11.97
2019-05-01T07:35:10.335Z,11.95
2019-05-01T07:37:39.576Z,11.93
2019-05-01T07:40:09.143Z,11.84
2019-05-01T07:42:43.716Z,12.02
2019-05-01T07:45:15.949Z,12.03
2019-05-01T07:47:46.803Z,12.18
2019-05-01T07:50:17.662Z,12.46
2019-05-01T07:52:51.731Z,12.48
2019-05-01T07:55:20.466Z,12.36
2019-05-01T07:57:49.830Z,12.33
2019-05-01T08:00:21.877Z,12.41
2019-05-01T08:02:50.730Z,12.52
2019-05-01T08:05:19.585Z,12.54
2019-05-01T08:07:48.565Z,12.61
2019-05-01T08:10:20.989Z,12.60
2019-05-01T08:12:48.263Z,12.72
2019-05-01T08:15:17.307Z,12.71
2019-05-01T08:17:48.752Z,12.84
2019-05-01T08:20:19.624Z,12.90
2019-05-01T08:22:48.815Z,12.97
2019-05-01T08:25:17.661Z,13.05
2019-05-01T08:27:50.929Z,13.22
2019-05-01T08:30:37.042Z,13.27
2019-05-01T08:33:23.951Z,13.35
2019-05-01T08:35:53.409Z,13.50
2019-05-01T08:38:22.492Z,13.61
2019-05-01T08:40:55.573Z,13.73
2019-05-01T08:43:22.002Z,13.83
2019-05-01T08:46:01.785Z,13.95
2019-05-01T08:48:38.419Z,14.12
2019-05-01T08:51:07.429Z,14.13
2019-05-01T08:53:36.387Z,14.29
2019-05-01T08:56:05.534Z,14.39
2019-05-01T08:58:34.387Z,14.33
2019-05-01T09:01:04.242Z,14.37
2019-05-01T09:03:33.190Z,14.58
2019-05-01T09:06:02.027Z,14.81
2019-05-01T09:08:32.305Z,14.76
2019-05-01T09:11:02.533Z,14.68
2019-05-01T09:13:31.547Z,14.67
2019-05-01T09:16:00.617Z,14.89
2019-05-01T09:18:29.542Z,15.24
2019-05-01T09:20:58.628Z,15.34
2019-05-01T09:23:27.661Z,15.27
2019-05-01T09:26:15.927Z,15.28
2019-05-01T09:29:01.630Z,15.36
2019-05-01T09:31:33.846Z,15.37
2019-05-01T09:34:03.588Z,15.67
2019-05-01T09:36:32.621Z,15.72
2019-05-01T09:39:02.187Z,15.66
2019-05-01T09:41:37.967Z,15.82
2019-05-01T09:44:05.773Z,15.53
2019-05-01T09:46:32.653Z,15.90
2019-05-01T09:49:01.862Z,16.26
2019-05-01T09:51:42.493Z,16.41
2019-05-01T09:54:13.743Z,16.40
2019-05-01T09:56:42.903Z,16.11
2019-05-01T09:59:12.641Z,16.59
2019-05-01T10:01:42.668Z,16.90
2019-05-01T10:04:11.580Z,16.98
2019-05-01T10:06:40.699Z,17.17
2019-05-01T10:09:12.038Z,17.37
2019-05-01T10:11:41.970Z,17.15
2019-05-01T10:14:11.256Z,17.15
2019-05-01T10:16:40.268Z,17.39
2019-05-01T10:19:09.259Z,17.35
2019-05-01T10:21:38.217Z,17.88
2019-05-01T10:24:07.297Z,17.64
2019-05-01T10:26:38.078Z,18.23
2019-05-01T10:29:25.916Z,18.64
2019-05-01T10:31:57.306Z,19.17
2019-05-01T10:34:38.751Z,19.07
2019-05-01T10:37:08.018Z,18.84
2019-05-01T10:39:37.098Z,18.88
2019-05-01T10:42:06.145Z,18.80
2019-05-01T10:44:35.097Z,18.19
2019-05-01T10:47:04.256Z,18.36
2019-05-01T10:49:33.379Z,18.49
2019-05-01T10:52:13.549Z,18.67
2019-05-01T10:54:32.978Z,18.90
2019-05-01T10:57:03.355Z,18.68
2019-05-01T10:59:32.819Z,18.55
2019-05-01T11:02:03.461Z,19.08
2019-05-01T11:04:32.578Z,18.79
2019-05-01T11:07:01.617Z,19.13
2019-05-01T11:09:30.657Z,19.40
2019-05-01T11:11:59.736Z,19.25
2019-05-01T11:14:28.817Z,19.24
2019-05-01T11:16:57.857Z,19.59
2019-05-01T11:19:29.570Z,20.22
2019-05-01T11:21:57.737Z,20.52
2019-05-01T11:24:26.978Z,19.88
2019-05-01T11:26:56.296Z,20.27
2019-05-01T11:29:25.536Z,20.54
2019-05-01T11:31:56.178Z,20.56
2019-05-01T11:34:43.290Z,20.49
2019-05-01T11:37:16.630Z,20.37
2019-05-01T11:40:03.498Z,19.76
2019-05-01T11:42:32.700Z,19.68
2019-05-01T11:45:01.738Z,19.55
2019-05-01T11:47:30.733Z,19.55
2019-05-01T11:49:59.793Z,18.88
2019-05-01T11:52:28.706Z,19.37
2019-05-01T11:54:57.664Z,19.10
2019-05-01T11:57:26.777Z,19.69
2019-05-01T11:59:55.817Z,20.09
2019-05-01T12:02:24.899Z,21.13
2019-05-01T12:04:53.976Z,21.87
2019-05-01T12:07:23.097Z,21.40
2019-05-01T12:09:52.187Z,21.43
2019-05-01T12:12:22.739Z,21.89
2019-05-01T12:14:51.777Z,21.42
2019-05-01T12:17:22.462Z,21.25
2019-05-01T12:19:51.417Z,21.67
2019-05-01T12:22:20.578Z,21.03
2019-05-01T12:24:49.698Z,20.23
2019-05-01T12:27:18.577Z,20.25
2019-05-01T12:29:47.617Z,20.60
2019-05-01T12:32:16.697Z,20.42
2019-05-01T12:34:45.738Z,21.13
2019-05-01T12:37:22.137Z,20.97
2019-05-01T12:39:51.179Z,21.40
2019-05-01T12:42:25.098Z,20.69
2019-05-01T12:44:54.018Z,21.15
2019-05-01T12:47:27.296Z,20.45
2019-05-01T12:49:56.979Z,20.62
2019-05-01T12:52:43.698Z,20.94
2019-05-01T12:55:17.101Z,21.06
2019-05-01T12:57:46.177Z,20.86
2019-05-01T13:00:17.339Z,21.15
2019-05-01T13:02:46.297Z,20.23
2019-05-01T13:05:15.417Z,20.53
2019-05-01T13:07:44.634Z,21.13
2019-05-01T13:10:13.937Z,21.36
2019-05-01T13:12:42.978Z,21.14
2019-05-01T13:15:12.256Z,21.83
2019-05-01T13:17:41.176Z,22.25
2019-05-01T13:20:10.217Z,21.11
2019-05-01T13:22:39.387Z,21.18
2019-05-01T13:25:08.736Z,20.75
2019-05-01T13:27:42.296Z,21.38
2019-05-01T13:30:21.777Z,20.78
2019-05-01T13:32:52.349Z,20.04
2019-05-01T13:35:21.336Z,20.04
2019-05-01T13:37:50.407Z,20.60
2019-05-01T13:40:19.964Z,21.00
2019-05-01T13:42:49.032Z,20.53
2019-05-01T13:45:18.497Z,21.10
2019-05-01T13:47:47.418Z,21.48
2019-05-01T13:50:16.458Z,21.96
2019-05-01T13:52:45.658Z,22.34
2019-05-01T13:55:15.376Z,22.63
2019-05-01T13:57:44.506Z,21.99
2019-05-01T14:00:14.138Z,22.00
2019-05-01T14:02:43.178Z,22.00
2019-05-01T14:05:12.259Z,21.89
2019-05-01T14:07:41.256Z,21.61
2019-05-01T14:10:10.536Z,20.85
2019-05-01T14:12:39.578Z,21.08
2019-05-01T14:15:10.185Z,21.70
2019-05-01T14:17:39.216Z,21.96
2019-05-01T14:20:19.258Z,21.54
2019-05-01T14:22:49.896Z,21.33
2019-05-01T14:25:18.858Z,21.26
2019-05-01T14:27:47.938Z,20.88
2019-05-01T14:30:17.018Z,20.69
2019-05-01T14:32:46.098Z,19.83
2019-05-01T14:35:15.298Z,19.81
2019-05-01T14:37:44.377Z,19.96
2019-05-01T14:40:13.816Z,20.26
2019-05-01T14:42:42.944Z,20.25
2019-05-01T14:45:12.298Z,20.11
2019-05-01T14:47:41.262Z,20.36
2019-05-01T14:50:10.698Z,20.02
2019-05-01T14:52:39.867Z,19.46
2019-05-01T14:55:09.025Z,19.86
2019-05-01T14:57:38.146Z,20.09
2019-05-01T15:00:11.338Z,20.01
2019-05-01T15:02:40.336Z,19.54
2019-05-01T15:05:09.577Z,19.14
2019-05-01T15:07:43.773Z,19.28
2019-05-01T15:10:09.656Z,19.03
2019-05-01T15:12:39.698Z,18.74
2019-05-01T15:15:19.338Z,18.46
2019-05-01T15:17:56.098Z,18.32
2019-05-01T15:20:25.137Z,18.30
2019-05-01T15:22:54.264Z,18.04
2019-05-01T15:25:23.329Z,17.65
2019-05-01T15:27:52.275Z,17.50
2019-05-01T15:30:21.457Z,17.70
2019-05-01T15:32:50.420Z,17.25
2019-05-01T15:35:19.300Z,17.15
2019-05-01T15:37:56.504Z,16.78
2019-05-01T15:40:29.282Z,17.00
2019-05-01T15:43:02.692Z,16.81
2019-05-01T15:45:31.619Z,16.41
2019-05-01T15:48:00.693Z,16.40
2019-05-01T15:50:29.595Z,16.65
2019-05-01T15:52:58.621Z,16.90
2019-05-01T15:55:27.698Z,17.03
2019-05-01T15:57:56.577Z,17.29
2019-05-01T16:00:25.432Z,17.62
2019-05-01T16:02:54.499Z,17.94
2019-05-01T16:05:23.418Z,17.72
2019-05-01T16:07:52.469Z,17.81
2019-05-01T16:10:23.201Z,17.47
2019-05-01T16:12:56.145Z,17.56
2019-05-01T16:15:25.879Z,17.41
2019-05-01T16:17:55.016Z,17.40
2019-05-01T16:20:23.907Z,17.17
2019-05-01T16:22:53.060Z,16.79
2019-05-01T16:25:22.258Z,17.05
2019-05-01T16:27:51.417Z,17.08
2019-05-01T16:30:22.483Z,17.26
2019-05-01T16:32:51.650Z,16.67
2019-05-01T16:35:20.738Z,16.86
2019-05-01T16:37:49.892Z,16.86
2019-05-01T16:40:20.696Z,16.94
2019-05-01T16:42:49.699Z,16.97
2019-05-01T16:45:18.897Z,16.89
2019-05-01T16:47:48.098Z,16.84
2019-05-01T16:50:17.377Z,16.77
2019-05-01T16:52:46.510Z,16.85
2019-05-01T16:55:17.458Z,16.95
2019-05-01T16:57:46.658Z,16.88
2019-05-01T17:00:16.377Z,16.69
2019-05-01T17:02:59.339Z,16.63
2019-05-01T17:05:30.297Z,16.59
2019-05-01T17:08:09.976Z,16.37
2019-05-01T17:10:40.817Z,16.39
2019-05-01T17:13:09.777Z,16.31
2019-05-01T17:15:42.337Z,16.38
2019-05-01T17:18:11.819Z,16.20
2019-05-01T17:20:41.138Z,16.16
2019-05-01T17:23:10.458Z,16.11
2019-05-01T17:25:39.736Z,16.10
2019-05-01T17:28:09.459Z,16.08
2019-05-01T17:30:43.778Z,16.04
2019-05-01T17:33:19.535Z,15.93
2019-05-01T17:35:44.056Z,15.86
2019-05-01T17:38:13.458Z,16.01
2019-05-01T17:40:42.776Z,15.92
2019-05-01T17:43:13.426Z,15.71
2019-05-01T17:45:43.257Z,15.57
2019-05-01T17:48:12.489Z,15.55
2019-05-01T17:50:41.777Z,15.47
2019-05-01T17:53:11.216Z,15.43
2019-05-01T17:55:40.536Z,15.15
2019-05-01T17:58:09.856Z,15.34
2019-05-01T18:00:42.017Z,15.15
2019-05-01T18:03:12.737Z,15.14
2019-05-01T18:06:01.367Z,15.13
2019-05-01T18:08:31.136Z,15.29
2019-05-01T18:11:00.501Z,15.24
2019-05-01T18:13:29.896Z,15.25
2019-05-01T18:15:59.576Z,15.21
2019-05-01T18:18:28.858Z,15.11
2019-05-01T18:20:58.259Z,15.04
2019-05-01T18:23:47.589Z,14.94
2019-05-01T18:26:20.457Z,14.98
2019-05-01T18:29:09.416Z,14.87
2019-05-01T18:31:39.017Z,14.69
2019-05-01T18:34:08.297Z,14.57
2019-05-01T18:36:54.888Z,14.42
2019-05-01T18:39:32.659Z,14.49
2019-05-01T18:42:06.697Z,14.31
2019-05-01T18:44:35.333Z,14.09
2019-05-01T18:47:04.939Z,13.91
2019-05-01T18:49:34.459Z,13.96
2019-05-01T18:52:05.239Z,13.70
2019-05-01T18:54:35.158Z,13.52
2019-05-01T18:57:06.737Z,13.39
2019-05-01T18:59:36.059Z,13.49
2019-05-01T19:02:06.424Z,13.41
2019-05-01T19:04:37.546Z,13.42
2019-05-01T19:07:07.097Z,13.35
2019-05-01T19:09:37.087Z,13.28
2019-05-01T19:12:09.100Z,13.19
2019-05-01T19:14:38.497Z,13.10
2019-05-01T19:17:10.658Z,13.04
2019-05-01T19:19:41.355Z,12.99
2019-05-01T19:22:10.867Z,12.91
2019-05-01T19:24:44.459Z,12.95
2019-05-01T19:27:18.367Z,12.79
2019-05-01T19:29:45.783Z,12.85
2019-05-01T19:32:20.338Z,12.90
2019-05-01T19:34:51.139Z,12.99
2019-05-01T19:37:23.822Z,13.12
2019-05-01T19:39:55.817Z,13.22
2019-05-01T19:42:27.000Z,13.28
2019-05-01T19:44:57.933Z,13.44
2019-05-01T19:47:29.462Z,13.35
2019-05-01T19:50:06.597Z,13.40
2019-05-01T19:52:32.390Z,13.39
2019-05-01T19:55:06.315Z,13.35
2019-05-01T19:57:36.339Z,13.36
2019-05-01T20:00:08.746Z,13.24
2019-05-01T20:02:38.177Z,13.08
2019-05-01T20:05:11.110Z,13.01
2019-05-01T20:07:40.217Z,12.86
2019-05-01T20:10:10.959Z,12.69
2019-05-01T20:12:40.858Z,12.72
2019-05-01T20:15:10.457Z,12.70
2019-05-01T20:17:39.738Z,12.67
2019-05-01T20:20:09.177Z,12.73
2019-05-01T20:22:38.578Z,12.74
2019-05-01T20:25:07.940Z,12.74
2019-05-01T20:27:39.547Z,12.85
2019-05-01T20:30:08.857Z,12.74
2019-05-01T20:32:38.146Z,12.65
2019-05-01T20:35:07.700Z,12.64
2019-05-01T20:37:37.096Z,12.63
2019-05-01T20:40:11.366Z,12.71
2019-05-01T20:42:38.856Z,12.57
2019-05-01T20:45:13.017Z,12.48
2019-05-01T20:47:45.107Z,12.37
2019-05-01T20:50:13.864Z,12.40
2019-05-01T20:52:42.537Z,12.48
2019-05-01T20:55:11.819Z,12.33
2019-05-01T20:57:42.407Z,12.32
2019-05-01T21:00:16.768Z,12.34
2019-05-01T21:02:44.591Z,12.29
2019-05-01T21:05:18.258Z,12.19
2019-05-01T21:07:52.039Z,12.13
2019-05-01T21:10:24.913Z,12.12
2019-05-01T21:12:52.058Z,12.15
2019-05-01T21:15:24.844Z,12.10
2019-05-01T21:17:51.738Z,12.04
2019-05-01T21:20:20.853Z,12.06
2019-05-01T21:22:49.738Z,12.16
2019-05-01T21:25:18.727Z,12.11
2019-05-01T21:27:47.658Z,12.15
2019-05-01T21:30:16.858Z,12.11
2019-05-01T21:32:45.817Z,11.99
2019-05-01T21:35:14.899Z,12.15
2019-05-01T21:37:43.857Z,12.03
2019-05-01T21:40:13.459Z,11.97
2019-05-01T21:42:42.945Z,11.76
2019-05-01T21:45:12.816Z,11.80
2019-05-01T21:47:42.647Z,11.63
2019-05-01T21:50:13.321Z,11.46
2019-05-01T21:52:43.773Z,11.40
2019-05-01T21:55:12.980Z,11.27
2019-05-01T21:57:42.056Z,11.20
2019-05-01T22:00:11.537Z,11.18
2019-05-01T22:02:41.625Z,11.13
2019-05-01T22:05:11.738Z,10.92
2019-05-01T22:07:40.736Z,10.87
2019-05-01T22:10:10.410Z,10.80
2019-05-01T22:12:39.498Z,10.78
2019-05-01T22:15:10.965Z,10.84
2019-05-01T22:17:51.859Z,10.90
2019-05-01T22:20:22.496Z,10.96
2019-05-01T22:22:53.216Z,11.02
2019-05-01T22:25:23.785Z,10.95
2019-05-01T22:27:54.424Z,10.96
2019-05-01T22:30:27.496Z,11.02
2019-05-01T22:32:58.338Z,10.91
2019-05-01T22:35:28.778Z,10.95
2019-05-01T22:37:57.662Z,11.04
2019-05-01T22:40:28.138Z,10.82
2019-05-01T22:42:57.056Z,10.67
2019-05-01T22:45:26.497Z,10.53
2019-05-01T22:47:55.617Z,10.47
2019-05-01T22:50:24.699Z,10.36
2019-05-01T22:52:53.709Z,10.23
2019-05-01T22:55:25.389Z,10.12
2019-05-01T22:57:53.336Z,10.14
2019-05-01T23:00:29.777Z,10.12
2019-05-01T23:03:05.411Z,10.12
2019-05-01T23:05:31.096Z,10.18
2019-05-01T23:08:00.220Z,10.21
2019-05-01T23:10:30.696Z,10.31
2019-05-01T23:12:59.859Z,10.29
2019-05-01T23:15:30.461Z,10.33
2019-05-01T23:17:59.498Z,10.21
2019-05-01T23:20:28.435Z,10.28
2019-05-01T23:22:57.538Z,10.35
2019-05-01T23:25:26.617Z,10.33
2019-05-01T23:27:55.537Z,10.35
2019-05-01T23:30:24.938Z,10.29
2019-05-01T23:32:53.816Z,10.26
2019-05-01T23:35:22.856Z,10.33
2019-05-01T23:37:52.057Z,10.37
2019-05-01T23:40:21.138Z,10.38
2019-05-01T23:42:53.691Z,10.45
2019-05-01T23:45:21.066Z,10.50
2019-05-01T23:47:50.136Z,10.52
2019-05-01T23:50:19.216Z,10.52
2019-05-01T23:52:48.339Z,10.56
2019-05-01T23:55:17.498Z,10.56
2019-05-01T23:57:46.576Z,10.51
